createdAt,value
2023-01-25T00:01:06.670Z,6.00
2023-01-25T00:03:34.957Z,6.00
2023-01-25T00:06:03.195Z,6.00
2023-01-25T00:08:31.546Z,6.00
2023-01-25T00:11:00.805Z,6.00
2023-01-25T00:13:29.062Z,6.00
2023-01-25T00:16:02.481Z,6.00
2023-01-25T00:18:30.624Z,6.00
2023-01-25T00:20:58.660Z,6.00
2023-01-25T00:23:26.658Z,6.00
2023-01-25T00:25:58.829Z,6.00
2023-01-25T00:28:28.489Z,6.00
2023-01-25T00:31:00.762Z,5.90
2023-01-25T00:33:41.832Z,5.90
2023-01-25T00:36:33.762Z,5.90
2023-01-25T00:39:02.165Z,5.90
2023-01-25T00:41:30.168Z,5.90
2023-01-25T00:44:00.597Z,5.90
2023-01-25T00:46:29.198Z,5.90
2023-01-25T00:48:57.624Z,5.90
2023-01-25T00:51:26.309Z,5.80
2023-01-25T00:53:54.478Z,5.90
2023-01-25T00:56:22.535Z,5.90
2023-01-25T00:58:50.767Z,5.80
2023-01-25T01:01:21.851Z,5.80
2023-01-25T01:03:50.079Z,5.70
2023-01-25T01:06:18.168Z,5.80
2023-01-25T01:08:46.392Z,5.70
2023-01-25T01:11:15.010Z,5.80
2023-01-25T01:13:43.047Z,5.80
2023-01-25T01:16:13.672Z,5.80
2023-01-25T01:18:45.195Z,5.80
2023-01-25T01:21:14.734Z,5.80
2023-01-25T01:23:42.827Z,5.70
2023-01-25T01:26:15.244Z,5.80
2023-01-25T01:28:43.978Z,5.80
2023-01-25T01:31:13.952Z,5.80
2023-01-25T01:33:50.475Z,5.80
2023-01-25T01:36:20.228Z,5.80
2023-01-25T01:38:48.533Z,5.80
2023-01-25T01:41:17.384Z,5.80
2023-01-25T01:43:45.699Z,5.80
2023-01-25T01:46:18.040Z,5.80
2023-01-25T01:48:51.806Z,5.80
2023-01-25T01:51:24.885Z,5.70
2023-01-25T01:53:57.106Z,5.70
2023-01-25T01:56:30.722Z,5.60
2023-01-25T01:59:02.622Z,5.60
2023-01-25T02:01:30.945Z,5.60
2023-01-25T02:04:02.960Z,5.60
2023-01-25T02:06:38.001Z,5.60
2023-01-25T02:09:06.075Z,5.60
2023-01-25T02:11:34.937Z,5.60
2023-01-25T02:14:03.763Z,5.50
2023-01-25T02:16:32.067Z,5.50
2023-01-25T02:19:03.729Z,5.50
2023-01-25T02:21:39.637Z,5.50
2023-01-25T02:24:12.918Z,5.50
2023-01-25T02:26:42.606Z,5.60
2023-01-25T02:29:11.474Z,5.50
2023-01-25T02:31:39.781Z,5.50
2023-01-25T02:34:07.834Z,5.50
2023-01-25T02:36:37.052Z,5.50
2023-01-25T02:39:08.490Z,5.50
2023-01-25T02:41:39.212Z,5.50
2023-01-25T02:44:12.060Z,5.60
2023-01-25T02:46:45.072Z,5.50
2023-01-25T02:49:13.770Z,5.50
2023-01-25T02:51:45.478Z,5.50
2023-01-25T02:54:15.032Z,5.60
2023-01-25T02:56:43.435Z,5.60
2023-01-25T02:59:14.083Z,5.60
2023-01-25T03:01:47.184Z,5.60
2023-01-25T03:04:15.702Z,5.60
2023-01-25T03:06:44.160Z,5.60
2023-01-25T03:09:13.404Z,5.60
2023-01-25T03:11:45.923Z,5.60
2023-01-25T03:14:15.310Z,5.60
2023-01-25T03:16:43.434Z,5.60
2023-01-25T03:19:11.592Z,5.60
2023-01-25T03:21:41.931Z,5.60
2023-01-25T03:24:12.108Z,5.70
2023-01-25T03:27:11.445Z,5.60
2023-01-25T03:29:46.044Z,5.70
2023-01-25T03:32:18.702Z,5.70
2023-01-25T03:34:47.198Z,5.60
2023-01-25T03:37:15.848Z,5.60
2023-01-25T03:39:44.796Z,5.60
2023-01-25T03:42:13.544Z,5.60
2023-01-25T03:44:41.439Z,5.60
2023-01-25T03:47:11.511Z,5.60
2023-01-25T03:49:39.522Z,5.60
2023-01-25T03:52:09.397Z,5.60
2023-01-25T03:54:40.248Z,5.60
2023-01-25T03:57:09.946Z,5.60
2023-01-25T03:59:51.909Z,5.60
2023-01-25T04:02:21.410Z,5.60
2023-01-25T04:04:49.494Z,5.60
2023-01-25T04:07:20.223Z,5.60
2023-01-25T04:09:50.107Z,5.60
2023-01-25T04:12:18.997Z,5.60
2023-01-25T04:14:47.523Z,5.60
2023-01-25T04:17:24.174Z,5.60
2023-01-25T04:20:00.332Z,5.50
2023-01-25T04:22:35.932Z,5.50
2023-01-25T04:25:06.176Z,5.50
2023-01-25T04:27:34.696Z,5.50
2023-01-25T04:30:13.385Z,5.50
2023-01-25T04:32:43.941Z,5.50
2023-01-25T04:35:26.227Z,5.50
2023-01-25T04:37:56.009Z,5.50
2023-01-25T04:40:26.798Z,5.50
2023-01-25T04:42:55.329Z,5.50
2023-01-25T04:45:23.650Z,5.50
2023-01-25T04:47:57.817Z,5.50
2023-01-25T04:50:26.444Z,5.50
2023-01-25T04:52:54.986Z,5.50
2023-01-25T04:55:24.859Z,5.50
2023-01-25T04:57:54.891Z,5.40
2023-01-25T05:00:23.923Z,5.40
2023-01-25T05:02:53.541Z,5.40
2023-01-25T05:05:21.584Z,5.30
2023-01-25T05:07:50.187Z,5.30
2023-01-25T05:10:18.115Z,5.30
2023-01-25T05:13:06.145Z,5.20
2023-01-25T05:15:34.223Z,5.20
2023-01-25T05:18:05.106Z,5.10
2023-01-25T05:20:34.785Z,5.10
2023-01-25T05:23:03.219Z,5.10
2023-01-25T05:25:50.014Z,5.10
2023-01-25T05:28:24.158Z,5.10
2023-01-25T05:31:24.662Z,5.10
2023-01-25T05:33:53.966Z,5.10
2023-01-25T05:36:22.575Z,5.00
2023-01-25T05:38:50.575Z,5.00
2023-01-25T05:41:18.624Z,5.00
2023-01-25T05:43:50.053Z,5.00
2023-01-25T05:46:18.817Z,5.00
2023-01-25T05:48:48.704Z,5.10
2023-01-25T05:51:18.595Z,5.10
2023-01-25T05:53:47.256Z,5.10
2023-01-25T05:56:15.323Z,5.10
2023-01-25T05:58:43.754Z,5.20
2023-01-25T06:01:11.677Z,5.20
2023-01-25T06:03:48.963Z,5.20
2023-01-25T06:06:18.588Z,5.20
2023-01-25T06:08:47.422Z,5.20
2023-01-25T06:11:18.921Z,5.20
2023-01-25T06:13:48.179Z,5.20
2023-01-25T06:16:16.558Z,5.20
2023-01-25T06:18:45.806Z,5.20
2023-01-25T06:21:36.966Z,5.20
2023-01-25T06:24:05.690Z,5.20
2023-01-25T06:26:33.624Z,5.20
2023-01-25T06:29:01.592Z,5.20
2023-01-25T06:31:29.594Z,5.20
2023-01-25T06:34:00.079Z,5.20
2023-01-25T06:36:29.099Z,5.20
2023-01-25T06:38:58.511Z,5.20
2023-01-25T06:41:26.671Z,5.20
2023-01-25T06:43:55.957Z,5.20
2023-01-25T06:46:25.024Z,5.20
2023-01-25T06:48:53.131Z,5.20
2023-01-25T06:51:21.166Z,5.20
2023-01-25T06:53:49.163Z,5.20
2023-01-25T06:56:21.511Z,5.20
2023-01-25T06:58:50.431Z,5.20
2023-01-25T07:01:20.738Z,5.20
2023-01-25T07:03:52.807Z,5.20
2023-01-25T07:06:21.284Z,5.20
2023-01-25T07:08:49.920Z,5.20
2023-01-25T07:11:19.794Z,5.20
2023-01-25T07:13:48.760Z,5.20
2023-01-25T07:16:19.867Z,5.10
2023-01-25T07:18:48.615Z,5.10
2023-01-25T07:21:18.593Z,5.10
2023-01-25T07:23:47.042Z,5.10
2023-01-25T07:26:18.476Z,5.10
2023-01-25T07:28:48.887Z,5.10
2023-01-25T07:31:18.476Z,5.10
2023-01-25T07:33:50.340Z,5.10
2023-01-25T07:36:19.135Z,5.00
2023-01-25T07:38:47.643Z,5.00
2023-01-25T07:41:16.353Z,5.00
2023-01-25T07:43:44.591Z,5.00
2023-01-25T07:46:15.607Z,5.00
2023-01-25T07:48:48.286Z,5.00
2023-01-25T07:51:27.825Z,5.00
2023-01-25T07:53:58.236Z,5.00
2023-01-25T07:56:27.993Z,5.00
2023-01-25T07:58:56.539Z,5.00
2023-01-25T08:01:27.925Z,5.00
2023-01-25T08:03:57.328Z,5.00
2023-01-25T08:06:27.742Z,5.00
2023-01-25T08:08:56.200Z,5.00
2023-01-25T08:11:26.653Z,5.00
2023-01-25T08:13:55.140Z,5.00
2023-01-25T08:16:26.065Z,5.00
2023-01-25T08:18:55.919Z,5.10
2023-01-25T08:21:29.045Z,5.10
2023-01-25T08:23:58.437Z,5.10
2023-01-25T08:26:26.563Z,5.10
2023-01-25T08:28:55.327Z,5.00
2023-01-25T08:31:27.153Z,5.10
2023-01-25T08:33:55.503Z,5.00
2023-01-25T08:36:24.824Z,5.00
2023-01-25T08:38:56.132Z,5.00
2023-01-25T08:41:24.411Z,5.00
2023-01-25T08:43:54.294Z,5.00
2023-01-25T08:46:23.926Z,5.00
2023-01-25T08:48:56.323Z,5.00
2023-01-25T08:51:26.030Z,5.10
2023-01-25T08:53:54.498Z,5.10
2023-01-25T08:56:22.793Z,5.10
2023-01-25T08:58:51.643Z,5.10
2023-01-25T09:01:20.897Z,5.10
2023-01-25T09:03:50.975Z,5.10
2023-01-25T09:06:20.839Z,5.10
2023-01-25T09:08:49.516Z,5.10
2023-01-25T09:11:19.550Z,5.20
2023-01-25T09:13:48.868Z,5.20
2023-01-25T09:16:18.737Z,5.20
2023-01-25T09:18:49.790Z,5.20
2023-01-25T09:21:20.645Z,5.20
2023-01-25T09:23:57.370Z,5.10
2023-01-25T09:26:32.814Z,5.10
2023-01-25T09:29:00.975Z,5.00
2023-01-25T09:31:30.384Z,5.00
2023-01-25T09:34:15.934Z,5.00
2023-01-25T09:36:45.301Z,5.00
2023-01-25T09:39:13.353Z,5.00
2023-01-25T09:42:14.738Z,5.00
2023-01-25T09:45:00.212Z,5.10
2023-01-25T09:47:31.793Z,5.10
2023-01-25T09:50:20.973Z,5.10
2023-01-25T09:53:16.548Z,5.10
2023-01-25T09:55:45.497Z,5.10
2023-01-25T09:58:18.975Z,5.10
2023-01-25T10:00:49.465Z,5.10
2023-01-25T10:03:23.891Z,5.10
2023-01-25T10:05:54.876Z,5.10
2023-01-25T10:08:29.905Z,5.10
2023-01-25T10:11:03.233Z,5.10
2023-01-25T10:13:31.877Z,5.10
2023-01-25T10:16:09.934Z,5.10
2023-01-25T10:18:45.887Z,5.00
2023-01-25T10:21:19.940Z,5.00
2023-01-25T10:24:11.539Z,5.00
2023-01-25T10:26:44.073Z,5.00
2023-01-25T10:29:15.056Z,5.10
2023-01-25T10:31:49.418Z,5.10
2023-01-25T10:34:21.679Z,5.10
2023-01-25T10:36:54.705Z,5.10
2023-01-25T10:39:24.963Z,5.10
2023-01-25T10:41:57.480Z,5.10
2023-01-25T10:44:28.831Z,5.10
2023-01-25T10:47:08.455Z,5.10
2023-01-25T10:49:47.596Z,5.00
2023-01-25T10:52:18.419Z,5.00
2023-01-25T10:54:50.581Z,5.00
2023-01-25T10:57:21.211Z,5.00
2023-01-25T10:59:51.868Z,5.00
2023-01-25T11:02:41.687Z,5.10
2023-01-25T11:05:35.520Z,5.10
2023-01-25T11:08:23.691Z,5.10
2023-01-25T11:10:53.956Z,5.20
2023-01-25T11:13:27.615Z,5.20
2023-01-25T11:15:57.816Z,5.30
2023-01-25T11:18:28.541Z,5.30
2023-01-25T11:21:07.586Z,5.30
2023-01-25T11:23:35.573Z,5.40
2023-01-25T11:26:15.338Z,5.40
2023-01-25T11:28:44.435Z,5.40
2023-01-25T11:31:14.944Z,5.40
2023-01-25T11:33:43.879Z,5.40
2023-01-25T11:36:23.515Z,5.40
2023-01-25T11:39:06.878Z,5.40
2023-01-25T11:41:46.115Z,5.50
2023-01-25T11:44:32.513Z,5.50
2023-01-25T11:47:09.983Z,5.50
2023-01-25T11:49:51.586Z,5.50
2023-01-25T11:52:32.428Z,5.50
2023-01-25T11:55:11.168Z,5.50
2023-01-25T11:57:53.895Z,5.50
2023-01-25T12:00:36.979Z,5.40
2023-01-25T12:03:40.138Z,5.40
2023-01-25T12:06:15.966Z,5.40
2023-01-25T12:09:04.043Z,5.40
2023-01-25T12:11:43.425Z,5.40
2023-01-25T12:14:20.015Z,5.40
2023-01-25T12:17:00.208Z,5.50
2023-01-25T12:19:48.092Z,5.50
2023-01-25T12:22:35.750Z,5.50
2023-01-25T12:25:16.080Z,5.50
2023-01-25T12:27:57.209Z,5.60
2023-01-25T12:30:39.581Z,5.60
2023-01-25T12:33:14.863Z,5.70
2023-01-25T12:35:47.837Z,5.70
2023-01-25T12:38:21.164Z,5.70
2023-01-25T12:40:55.540Z,5.70
2023-01-25T12:43:28.520Z,5.70
2023-01-25T12:46:00.863Z,5.70
2023-01-25T12:48:32.524Z,5.70
2023-01-25T12:51:01.402Z,5.70
2023-01-25T12:53:34.923Z,5.70
2023-01-25T12:56:05.704Z,5.80
2023-01-25T12:58:39.954Z,5.70
2023-01-25T13:01:17.652Z,5.70
2023-01-25T13:04:00.874Z,5.70
2023-01-25T13:06:40.575Z,5.70
2023-01-25T13:09:14.945Z,5.70
2023-01-25T13:11:44.953Z,5.70
2023-01-25T13:14:30.571Z,5.70
2023-01-25T13:17:23.557Z,5.70
2023-01-25T13:19:53.331Z,5.70
2023-01-25T13:22:58.661Z,5.70
2023-01-25T13:25:31.638Z,5.70
2023-01-25T13:28:42.534Z,5.70
2023-01-25T13:31:10.659Z,5.60
2023-01-25T13:33:39.901Z,5.60
2023-01-25T13:36:39.737Z,5.60
2023-01-25T13:39:37.394Z,5.60
2023-01-25T13:42:19.191Z,5.60
2023-01-25T13:44:51.598Z,5.60
2023-01-25T13:47:23.957Z,5.60
2023-01-25T13:50:00.680Z,5.60
2023-01-25T13:52:31.132Z,5.60
2023-01-25T13:54:59.959Z,5.60
2023-01-25T13:57:29.906Z,5.60
2023-01-25T14:00:10.081Z,5.60
2023-01-25T14:02:44.350Z,5.60
2023-01-25T14:05:22.720Z,5.60
2023-01-25T14:07:53.378Z,5.50
2023-01-25T14:10:24.478Z,5.60
2023-01-25T14:12:54.011Z,5.60
2023-01-25T14:15:25.363Z,5.60
2023-01-25T14:18:18.128Z,5.50
2023-01-25T14:20:49.032Z,5.60
2023-01-25T14:23:28.085Z,5.60
2023-01-25T14:26:01.199Z,5.60
2023-01-25T14:28:30.633Z,5.60
2023-01-25T14:31:01.329Z,5.60
2023-01-25T14:33:32.083Z,5.60
2023-01-25T14:36:22.851Z,5.60
2023-01-25T14:38:51.960Z,5.60
2023-01-25T14:41:23.236Z,5.70
2023-01-25T14:43:54.497Z,5.60
2023-01-25T14:46:27.708Z,5.60
2023-01-25T14:49:25.319Z,5.60
2023-01-25T14:52:03.323Z,5.60
2023-01-25T14:54:33.243Z,5.60
2023-01-25T14:57:03.420Z,5.60
2023-01-25T14:59:36.599Z,5.60
2023-01-25T15:02:17.537Z,5.60
2023-01-25T15:04:54.727Z,5.60
2023-01-25T15:07:43.873Z,5.50
2023-01-25T15:10:20.776Z,5.50
2023-01-25T15:13:13.546Z,5.50
2023-01-25T15:15:53.218Z,5.50
2023-01-25T15:18:43.851Z,5.50
2023-01-25T15:21:13.786Z,5.50
2023-01-25T15:23:44.417Z,5.50
2023-01-25T15:26:19.865Z,5.50
2023-01-25T15:28:48.186Z,5.50
2023-01-25T15:31:18.954Z,5.50
2023-01-25T15:33:47.449Z,5.40
2023-01-25T15:36:17.430Z,5.40
2023-01-25T15:38:47.069Z,5.40
2023-01-25T15:41:18.341Z,5.40
2023-01-25T15:43:46.996Z,5.40
2023-01-25T15:46:19.658Z,5.40
2023-01-25T15:48:49.304Z,5.30
2023-01-25T15:51:18.240Z,5.30
2023-01-25T15:53:48.116Z,5.30
2023-01-25T15:56:18.813Z,5.30
2023-01-25T15:58:49.847Z,5.20
2023-01-25T16:01:17.898Z,5.20
2023-01-25T16:03:45.952Z,5.20
2023-01-25T16:06:37.491Z,5.20
2023-01-25T16:09:15.331Z,5.20
2023-01-25T16:11:43.621Z,5.20
2023-01-25T16:14:11.690Z,5.20
2023-01-25T16:16:42.313Z,5.10
2023-01-25T16:19:13.263Z,5.10
2023-01-25T16:21:41.565Z,5.10
2023-01-25T16:24:12.543Z,5.10
2023-01-25T16:26:45.040Z,5.10
2023-01-25T16:29:13.798Z,5.10
2023-01-25T16:31:41.847Z,5.10
2023-01-25T16:34:10.339Z,5.10
2023-01-25T16:36:39.638Z,5.10
2023-01-25T16:39:16.188Z,5.00
2023-01-25T16:41:44.177Z,5.00
2023-01-25T16:44:12.237Z,5.00
2023-01-25T16:46:41.409Z,5.00
2023-01-25T16:49:12.139Z,5.00
2023-01-25T16:51:40.239Z,5.00
2023-01-25T16:54:11.825Z,5.00
2023-01-25T16:56:41.286Z,5.00
2023-01-25T16:59:10.294Z,4.90
2023-01-25T17:01:40.144Z,4.90
2023-01-25T17:04:08.719Z,4.90
2023-01-25T17:06:38.331Z,4.90
2023-01-25T17:09:21.989Z,4.90
2023-01-25T17:11:52.278Z,4.80
2023-01-25T17:14:20.996Z,4.80
2023-01-25T17:16:51.382Z,4.80
2023-01-25T17:19:20.947Z,4.80
2023-01-25T17:21:49.202Z,4.80
2023-01-25T17:24:21.087Z,4.80
2023-01-25T17:26:49.572Z,4.80
2023-01-25T17:29:18.954Z,4.70
2023-01-25T17:31:47.198Z,4.70
2023-01-25T17:34:16.693Z,4.70
2023-01-25T17:36:45.573Z,4.70
2023-01-25T17:39:15.599Z,4.60
2023-01-25T17:41:44.175Z,4.60
2023-01-25T17:44:12.708Z,4.60
2023-01-25T17:46:42.295Z,4.50
2023-01-25T17:49:13.740Z,4.50
2023-01-25T17:51:41.889Z,4.50
2023-01-25T17:54:11.761Z,4.50
2023-01-25T17:56:39.924Z,4.50
2023-01-25T17:59:11.862Z,4.50
2023-01-25T18:01:43.020Z,4.50
2023-01-25T18:04:13.427Z,4.60
2023-01-25T18:06:41.468Z,4.60
2023-01-25T18:09:09.908Z,4.50
2023-01-25T18:11:40.142Z,4.50
2023-01-25T18:14:10.029Z,4.50
2023-01-25T18:16:40.066Z,4.50
2023-01-25T18:19:10.458Z,4.50
2023-01-25T18:21:39.275Z,4.50
2023-01-25T18:24:23.311Z,4.50
2023-01-25T18:26:52.364Z,4.50
2023-01-25T18:29:37.558Z,4.50
2023-01-25T18:32:06.881Z,4.50
2023-01-25T18:34:36.276Z,4.50
2023-01-25T18:37:17.839Z,4.50
2023-01-25T18:39:46.039Z,4.50
2023-01-25T18:42:13.911Z,4.50
2023-01-25T18:44:43.646Z,4.50
2023-01-25T18:47:13.801Z,4.50
2023-01-25T18:49:43.251Z,4.50
2023-01-25T18:52:12.131Z,4.50
2023-01-25T18:54:40.444Z,4.40
2023-01-25T18:57:09.906Z,4.40
2023-01-25T18:59:38.205Z,4.40
2023-01-25T19:02:06.464Z,4.40
2023-01-25T19:04:34.971Z,4.40
2023-01-25T19:07:04.676Z,4.30
2023-01-25T19:09:32.841Z,4.30
2023-01-25T19:12:01.289Z,4.30
2023-01-25T19:14:29.201Z,4.30
2023-01-25T19:16:57.591Z,4.20
2023-01-25T19:19:31.891Z,4.20
2023-01-25T19:22:00.211Z,4.20
2023-01-25T19:24:30.046Z,4.20
2023-01-25T19:26:58.351Z,4.20
2023-01-25T19:29:26.322Z,4.20
2023-01-25T19:31:54.563Z,4.20
2023-01-25T19:34:22.760Z,4.20
2023-01-25T19:36:50.774Z,4.20
2023-01-25T19:39:19.139Z,4.20
2023-01-25T19:41:48.616Z,4.30
2023-01-25T19:44:16.471Z,4.20
2023-01-25T19:46:44.561Z,4.20
2023-01-25T19:49:14.369Z,4.30
2023-01-25T19:51:48.993Z,4.30
2023-01-25T19:54:18.543Z,4.30
2023-01-25T19:56:49.558Z,4.30
2023-01-25T19:59:19.644Z,4.30
2023-01-25T20:01:48.423Z,4.30
2023-01-25T20:04:19.556Z,4.30
2023-01-25T20:06:48.556Z,4.30
2023-01-25T20:09:18.430Z,4.30
2023-01-25T20:11:48.523Z,4.30
2023-01-25T20:14:16.859Z,4.30
2023-01-25T20:16:44.924Z,4.30
2023-01-25T20:19:13.521Z,4.30
2023-01-25T20:21:42.048Z,4.30
2023-01-25T20:24:10.839Z,4.40
2023-01-25T20:26:42.628Z,4.40
2023-01-25T20:29:13.642Z,4.40
2023-01-25T20:31:43.368Z,4.40
2023-01-25T20:34:13.594Z,4.40
2023-01-25T20:36:42.411Z,4.40
2023-01-25T20:39:13.536Z,4.40
2023-01-25T20:41:41.981Z,4.40
2023-01-25T20:44:14.022Z,4.30
2023-01-25T20:46:43.417Z,4.30
2023-01-25T20:49:14.970Z,4.30
2023-01-25T20:51:43.804Z,4.30
2023-01-25T20:54:21.482Z,4.30
2023-01-25T20:56:50.722Z,4.30
2023-01-25T20:59:20.313Z,4.30
2023-01-25T21:01:50.334Z,4.30
2023-01-25T21:04:18.289Z,4.30
2023-01-25T21:06:46.483Z,4.30
2023-01-25T21:09:14.589Z,4.30
2023-01-25T21:11:42.940Z,4.30
2023-01-25T21:14:11.070Z,4.20
2023-01-25T21:16:40.419Z,4.20
2023-01-25T21:19:09.326Z,4.20
2023-01-25T21:21:38.584Z,4.20
2023-01-25T21:24:07.408Z,4.20
2023-01-25T21:26:38.361Z,4.20
2023-01-25T21:29:07.409Z,4.20
2023-01-25T21:31:37.330Z,4.20
2023-01-25T21:34:09.321Z,4.20
2023-01-25T21:36:37.622Z,4.20
2023-01-25T21:39:05.915Z,4.20
2023-01-25T21:41:34.317Z,4.20
2023-01-25T21:44:21.316Z,4.10
2023-01-25T21:49:58.346Z,4.00
2023-01-25T21:52:26.423Z,3.90
2023-01-25T21:54:54.320Z,3.80
2023-01-25T21:57:22.304Z,3.80
2023-01-25T21:59:51.961Z,3.80
2023-01-25T22:02:21.911Z,3.70
2023-01-25T22:04:51.206Z,3.70
2023-01-25T22:07:19.672Z,3.70
2023-01-25T22:09:49.275Z,3.70
2023-01-25T22:12:17.350Z,3.70
2023-01-25T22:14:45.441Z,3.70
2023-01-25T22:17:13.366Z,3.70
2023-01-25T22:19:41.382Z,3.70
2023-01-25T22:22:10.845Z,3.70
2023-01-25T22:24:38.754Z,3.70
2023-01-25T22:27:31.718Z,3.70
2023-01-25T22:30:00.081Z,3.80
2023-01-25T22:32:27.951Z,3.80
2023-01-25T22:34:56.146Z,3.80
2023-01-25T22:37:25.432Z,3.80
2023-01-25T22:39:54.548Z,3.80
2023-01-25T22:42:22.535Z,3.90
2023-01-25T22:44:50.586Z,3.90
2023-01-25T22:47:18.487Z,3.90
2023-01-25T22:49:46.477Z,3.90
2023-01-25T22:52:14.371Z,3.90
2023-01-25T22:54:43.809Z,4.10
2023-01-25T22:57:11.835Z,4.00
2023-01-25T22:59:39.663Z,4.00
2023-01-25T23:02:07.791Z,4.00
2023-01-25T23:04:36.078Z,4.00
2023-01-25T23:07:12.421Z,4.00
2023-01-25T23:09:41.128Z,4.00
2023-01-25T23:12:10.693Z,4.00
2023-01-25T23:14:54.168Z,4.00
2023-01-25T23:17:41.891Z,4.00
2023-01-25T23:20:13.061Z,4.10
2023-01-25T23:22:41.562Z,4.00
2023-01-25T23:25:11.260Z,4.00
2023-01-25T23:27:40.791Z,4.00
2023-01-25T23:30:10.834Z,4.00
2023-01-25T23:32:38.975Z,4.00
2023-01-25T23:35:07.916Z,3.90
2023-01-25T23:37:35.773Z,3.90
2023-01-25T23:40:03.887Z,3.90
2023-01-25T23:42:31.806Z,3.90
2023-01-25T23:45:01.397Z,3.90
2023-01-25T23:47:31.102Z,3.90
2023-01-25T23:49:59.303Z,3.90
2023-01-25T23:52:27.204Z,3.90
2023-01-25T23:54:55.384Z,3.90
2023-01-25T23:57:23.237Z,3.90
2023-01-25T23:59:51.368Z,3.90
